Departure ICAO
Arrival ICAO

The revolutionary moving map for travelling passengers has finally arrived
More information here

LFMD Cannes Mandelieu - EGKB London Biggin Hill


Distance 545 NM


LFMN Nice Cote D'Azur VFR

METAR LFMN 180900Z 34007KT 9999 FEW036 08/M03 Q1011 NOSIG

TAF LFMN 180800Z 1809/1915 34010KT 9999 FEW020 BECMG 1811/1813 24010KT BECMG 1817/1819 33010KT BECMG 1911/1913 24010KT


LFMD Cannes Mandelieu VFR CAVOK

METAR LFMD 180900Z AUTO VRB03KT CAVOK 06/M01 Q1011 NOSIG

TAF LFMD 180800Z 1809/1909 34010KT CAVOK BECMG 1811/1813 24010KT BECMG 1817/1819 36010KT


LFLB Chambery Aix Les Bains IFR CAT I

METAR LFLB 180900Z AUTO 05003KT 360V090 9000 BKN009 OVC025 02/01 Q1017 TEMPO 3000 BR BECMG BKN033

TAF LFLB 180500Z 1806/1906 36005KT 9999 BKN014 TEMPO 1806/1810 3000 BR OVC005 BECMG 1810/1812 36010KT BKN033 PROB30 TEMPO 1900/1906 3000 BR


LFLS Grenoble Saint Geoirs VFR

METAR LFLS 180900Z AUTO 34008KT 9999 BKN010 OVC014 00/M02 Q1017 NOSIG

TAF LFLS 180800Z 1809/1909 34006KT 9999 BKN008 BECMG 1809/1811 BKN014 BECMG 1811/1813 9999 FEW020 BECMG 1818/1820 VRB02KT


LFLL Lyon Saint Exupery IFR CAT I

METAR LFLL 180900Z 34011KT 9999 BKN008 00/M01 Q1018 NOSIG

TAF LFLL 180500Z 1806/1912 35008KT 9999 SCT010 SCT030 TEMPO 1806/1811 BKN010 TEMPO 1903/1908 3000 BR


LFLY Lyon Bron VFR

METAR LFLY 180900Z AUTO 35008KT 9999 BKN015 01/M02 Q1019 NOSIG

TAF LFLY 180500Z 1806/1906 36008KT 9999 SCT014 BKN030 TEMPO 1806/1809 BKN010 BECMG 1811/1813 SCT025 BECMG 1813/1815 NSC PROB40 TEMPO 1822/1906 3000 BR SCT010


LFLN Saint Yan VFR CAVOK

METAR LFLN 180900Z AUTO VRB03KT CAVOK M00/M01 Q1019 NOSIG

TAF AMD LFLN 180835Z 1809/1818 VRB03KT 9999 BKN020 BECMG 1809/1812 CAVOK


LFPM Melun Villaroche VFR

METAR LFPM 180900Z AUTO 13003KT 9000 NSC M01/M01 Q1020


LFPO Paris Orly VFR CAVOK

METAR LFPO 180900Z 23003KT CAVOK M00/M01 Q1020 NOSIG

TAF LFPO 180500Z 1806/1912 VRB02KT CAVOK BECMG 1808/1810 16004KT PROB30 TEMPO 1909/1912 4000 -SN OVC013 PROB40 TEMPO 1911/1912 -RA BKN020


LFPG Paris Charles De Gaulle VFR CAVOK

METAR LFPG 180900Z 14004KT CAVOK 00/M02 Q1020 NOSIG

TAF LFPG 180500Z 1806/1912 VRB03KT CAVOK TX04/1814Z TNM01/1903Z BECMG 1810/1812 15005KT PROB30 TEMPO 1909/1912 -SN BKN016


LFPB Paris Le Bourget VFR

METAR LFPB 180900Z AUTO 01002KT 9000 NSC M00/M02 Q1020 NOSIG

TAF LFPB 180500Z 1806/1906 VRB03KT CAVOK BECMG 1810/1812 15005KT


LFPV Villacoublay Velizy VFR CAVOK

METAR LFPV 180900Z AUTO VRB02KT CAVOK M01/M02 Q1019 NOSIG

TAF LFPV 180800Z 1809/1909 14005KT CAVOK PROB30 TEMPO 1820/1905 3000 BR OVC004 BECMG 1907/1909 3500 RA OVC007


LFPN Toussous Le Noble VFR CAVOK

METAR LFPN 180900Z AUTO 13003KT CAVOK M01/M02 Q1019 NOSIG

TAF LFPN 180800Z 1809/1818 16005KT CAVOK


LFPT Pontoise Cormeilles En Vexin VFR CAVOK

METAR LFPT 180900Z AUTO 00000KT CAVOK M01/M02 Q1019


LFOB Beauvais Tille VFR

METAR LFOB 180900Z AUTO VRB01KT 9000 NSC M01/M02 Q1019 NOSIG

TAF LFOB 180500Z 1806/1906 VRB03KT CAVOK BECMG 1811/1813 16010KT PROB30 1822/1903 BKN004


LFAT Le Tourquet Paris Plage VFR CAVOK

METAR LFAT 180900Z AUTO 14004KT CAVOK M00/M01 Q1019 NOSIG

TAF LFAT 180800Z 1809/1818 VRB03KT CAVOK BECMG 1810/1813 16010KT


EGMD Lydd VFR

METAR EGMD 180850Z 34004KT 9999 FEW030 M02/M02 Q1019

TAF EGMD 180800Z 1809/1818 VRB03KT 9999 FEW035 BECMG 1809/1812 18012KT


EGKA Shoreham By Sea Shoreham VFR

METAR EGKA 180850Z 05002KT 9999 SCT021 M01/M02 Q1017

TAF EGKA 180800Z 1809/1818 VRB03KT 9999 SCT020 BECMG 1809/1812 17012KT


EGKB London Biggin Hill VFR CAVOK

METAR EGKB 180850Z 14007KT CAVOK 01/M03 Q1017

TAF EGKB 180800Z 1809/1818 VRB03KT 9999 FEW035 BECMG 1810/1812 17010KT


EGKK London Gatwick VFR

METAR EGKK 180850Z 08002KT 9999 FEW030 M02/M03 Q1018

TAF EGKK 180452Z 1806/1912 VRB03KT 9999 FEW035 PROB30 1806/1809 8000 BECMG 1810/1813 17010KT BECMG 1821/1824 BKN012 TEMPO 1822/1912 6000 -RADZ BKN008 PROB30 TEMPO 1822/1906 4000 RADZ BKN004


EGLC London City VFR

METAR EGLC 180850Z AUTO 16004KT 120V210 9999 NCD 03/M03 Q1018

TAF EGLC 180800Z 1809/1818 VRB03KT 9999 FEW035 BECMG 1810/1813 16010KT


EGSS London Stansted VFR

METAR EGSS 180850Z AUTO 15006KT 130V200 9999 NCD M01/M03 Q1018

TAF EGSS 180456Z 1806/1912 22005KT 9999 FEW035 PROB30 1806/1810 6000 BECMG 1810/1813 15010KT BECMG 1822/1901 OVC010 TEMPO 1822/1907 7000 -RA OVC006 PROB30 TEMPO 1822/1907 3000 RASN -SN OVC004 BECMG 1907/1910 7000 OVC004 PROB40 TEMPO 1907/1912 0300 FG VV/// PROB30 TEMPO 1907/1912 RADZ


EGLL London Heathrow VFR

METAR EGLL 180850Z AUTO 14005KT 110V200 9999 NCD M01/M02 Q1018 NOSIG

TAF EGLL 180453Z 1806/1912 14006KT 9999 FEW030 PROB30 1806/1809 4000 BR BECMG 1821/1824 BKN012 TEMPO 1900/1912 4000 RA -RADZ BKN005 PROB30 TEMPO 1906/1911 BKN003


EGWU Northolt VFR CAVOK

METAR EGWU 180850Z 11003KT CAVOK M00/M01 Q1017 NOSIG

TAF EGWU 180741Z 1809/1903 15007KT 9999 FEW030 BECMG 1820/1823 BKN012 PROB40 TEMPO 1822/1903 6000 RA PROB30 TEMPO 1901/1903 SCT006


EGLF London Farnborough VFR CAVOK

METAR EGLF 180850Z VRB03KT CAVOK M01/M04 Q1017

TAF EGLF 180800Z 1809/1818 VRB03KT 9999 FEW035 BECMG 1810/1812 16010KT



NOTAMS LFMD

 NOTAMS EGKB